sensor_id;sensor_type;location;lat;lon;timestamp;temperature;humidity
12434;DHT22;6281;49.038;8.372;2023-07-30T00:00:48;18.30;99.90
12434;DHT22;6281;49.038;8.372;2023-07-30T00:03:16;18.20;99.90
12434;DHT22;6281;49.038;8.372;2023-07-30T00:05:42;18.10;99.90
12434;DHT22;6281;49.038;8.372;2023-07-30T00:08:09;18.10;99.90
12434;DHT22;6281;49.038;8.372;2023-07-30T00:10:36;18.10;99.90
12434;DHT22;6281;49.038;8.372;2023-07-30T00:13:04;18.00;99.90
12434;DHT22;6281;49.038;8.372;2023-07-30T00:15:31;18.00;99.90
12434;DHT22;6281;49.038;8.372;2023-07-30T00:17:58;18.10;99.90
12434;DHT22;6281;49.038;8.372;2023-07-30T00:20:25;18.10;99.90
12434;DHT22;6281;49.038;8.372;2023-07-30T00:22:52;18.10;99.90
12434;DHT22;6281;49.038;8.372;2023-07-30T00:25:18;18.20;99.90
12434;DHT22;6281;49.038;8.372;2023-07-30T00:27:45;18.20;99.90
12434;DHT22;6281;49.038;8.372;2023-07-30T00:30:14;18.00;99.90
12434;DHT22;6281;49.038;8.372;2023-07-30T00:32:40;18.10;99.90
12434;DHT22;6281;49.038;8.372;2023-07-30T00:35:09;18.00;99.90
12434;DHT22;6281;49.038;8.372;2023-07-30T00:37:36;18.00;99.90
12434;DHT22;6281;49.038;8.372;2023-07-30T00:40:04;18.00;99.90
12434;DHT22;6281;49.038;8.372;2023-07-30T00:42:31;18.00;99.90
12434;DHT22;6281;49.038;8.372;2023-07-30T00:44:58;18.00;99.90
12434;DHT22;6281;49.038;8.372;2023-07-30T00:47:26;18.00;99.90
12434;DHT22;6281;49.038;8.372;2023-07-30T00:49:54;18.00;99.90
12434;DHT22;6281;49.038;8.372;2023-07-30T00:52:21;18.10;99.90
12434;DHT22;6281;49.038;8.372;2023-07-30T00:54:50;18.10;99.90
12434;DHT22;6281;49.038;8.372;2023-07-30T00:57:18;18.10;99.90
12434;DHT22;6281;49.038;8.372;2023-07-30T00:59:46;18.10;99.90
12434;DHT22;6281;49.038;8.372;2023-07-30T01:02:13;18.00;99.90
12434;DHT22;6281;49.038;8.372;2023-07-30T01:04:42;18.20;99.90
12434;DHT22;6281;49.038;8.372;2023-07-30T01:07:09;18.30;99.90
12434;DHT22;6281;49.038;8.372;2023-07-30T01:09:36;18.20;99.90
12434;DHT22;6281;49.038;8.372;2023-07-30T01:12:07;18.20;99.90
12434;DHT22;6281;49.038;8.372;2023-07-30T01:14:35;18.30;99.90
12434;DHT22;6281;49.038;8.372;2023-07-30T01:17:04;18.30;99.90
12434;DHT22;6281;49.038;8.372;2023-07-30T01:19:31;18.30;99.90
12434;DHT22;6281;49.038;8.372;2023-07-30T01:21:59;18.30;99.90
12434;DHT22;6281;49.038;8.372;2023-07-30T01:24:26;18.20;99.90
12434;DHT22;6281;49.038;8.372;2023-07-30T01:26:56;18.30;99.90
12434;DHT22;6281;49.038;8.372;2023-07-30T01:29:30;18.30;99.90
12434;DHT22;6281;49.038;8.372;2023-07-30T01:32:05;18.30;99.90
12434;DHT22;6281;49.038;8.372;2023-07-30T01:34:35;18.40;99.90
12434;DHT22;6281;49.038;8.372;2023-07-30T01:37:09;18.30;99.90
12434;DHT22;6281;49.038;8.372;2023-07-30T01:39:37;18.30;99.90
12434;DHT22;6281;49.038;8.372;2023-07-30T01:42:05;18.30;99.90
12434;DHT22;6281;49.038;8.372;2023-07-30T01:44:32;18.20;99.90
12434;DHT22;6281;49.038;8.372;2023-07-30T01:46:58;18.30;99.90
12434;DHT22;6281;49.038;8.372;2023-07-30T01:49:25;18.30;99.90
12434;DHT22;6281;49.038;8.372;2023-07-30T01:51:52;18.30;99.90
12434;DHT22;6281;49.038;8.372;2023-07-30T01:54:23;18.30;99.90
12434;DHT22;6281;49.038;8.372;2023-07-30T01:56:50;18.20;99.90
12434;DHT22;6281;49.038;8.372;2023-07-30T01:59:17;18.30;99.90
12434;DHT22;6281;49.038;8.372;2023-07-30T02:01:44;18.20;99.90
12434;DHT22;6281;49.038;8.372;2023-07-30T02:04:10;18.20;99.90
12434;DHT22;6281;49.038;8.372;2023-07-30T02:06:37;18.10;99.90
12434;DHT22;6281;49.038;8.372;2023-07-30T02:09:04;18.10;99.90
12434;DHT22;6281;49.038;8.372;2023-07-30T02:11:35;18.20;99.90
12434;DHT22;6281;49.038;8.372;2023-07-30T02:14:04;18.10;99.90
12434;DHT22;6281;49.038;8.372;2023-07-30T02:16:31;18.00;99.90
12434;DHT22;6281;49.038;8.372;2023-07-30T02:18:58;18.10;99.90
12434;DHT22;6281;49.038;8.372;2023-07-30T02:21:25;18.20;99.90
12434;DHT22;6281;49.038;8.372;2023-07-30T02:23:52;18.20;99.90
12434;DHT22;6281;49.038;8.372;2023-07-30T02:26:19;18.10;99.90
12434;DHT22;6281;49.038;8.372;2023-07-30T02:28:47;18.20;99.90
12434;DHT22;6281;49.038;8.372;2023-07-30T02:31:14;18.20;99.90
12434;DHT22;6281;49.038;8.372;2023-07-30T02:33:41;18.20;99.90
12434;DHT22;6281;49.038;8.372;2023-07-30T02:36:08;18.30;99.90
12434;DHT22;6281;49.038;8.372;2023-07-30T02:38:35;18.30;99.90
12434;DHT22;6281;49.038;8.372;2023-07-30T02:41:02;18.40;99.90
12434;DHT22;6281;49.038;8.372;2023-07-30T02:43:29;18.40;99.90
12434;DHT22;6281;49.038;8.372;2023-07-30T02:45:57;18.40;99.90
12434;DHT22;6281;49.038;8.372;2023-07-30T02:48:24;18.30;99.90
12434;DHT22;6281;49.038;8.372;2023-07-30T02:50:51;18.30;99.90
12434;DHT22;6281;49.038;8.372;2023-07-30T02:53:18;18.30;99.90
12434;DHT22;6281;49.038;8.372;2023-07-30T02:55:45;18.30;99.90
12434;DHT22;6281;49.038;8.372;2023-07-30T02:58:12;18.30;99.90
12434;DHT22;6281;49.038;8.372;2023-07-30T03:00:38;18.40;99.90
12434;DHT22;6281;49.038;8.372;2023-07-30T03:03:07;18.30;99.90
12434;DHT22;6281;49.038;8.372;2023-07-30T03:05:34;18.30;99.90
12434;DHT22;6281;49.038;8.372;2023-07-30T03:08:01;18.40;99.90
12434;DHT22;6281;49.038;8.372;2023-07-30T03:10:28;18.40;99.90
12434;DHT22;6281;49.038;8.372;2023-07-30T03:12:54;18.40;99.90
12434;DHT22;6281;49.038;8.372;2023-07-30T03:15:21;18.50;99.90
12434;DHT22;6281;49.038;8.372;2023-07-30T03:17:48;18.40;99.90
12434;DHT22;6281;49.038;8.372;2023-07-30T03:20:16;18.50;99.90
12434;DHT22;6281;49.038;8.372;2023-07-30T03:22:43;18.40;99.90
12434;DHT22;6281;49.038;8.372;2023-07-30T03:25:10;18.40;99.90
12434;DHT22;6281;49.038;8.372;2023-07-30T03:27:37;18.30;99.90
12434;DHT22;6281;49.038;8.372;2023-07-30T03:30:05;18.30;99.90
12434;DHT22;6281;49.038;8.372;2023-07-30T03:32:32;18.30;99.90
12434;DHT22;6281;49.038;8.372;2023-07-30T03:34:59;18.30;99.90
12434;DHT22;6281;49.038;8.372;2023-07-30T03:37:28;18.30;99.90
12434;DHT22;6281;49.038;8.372;2023-07-30T03:39:54;18.30;99.90
12434;DHT22;6281;49.038;8.372;2023-07-30T03:42:21;18.30;99.90
12434;DHT22;6281;49.038;8.372;2023-07-30T03:44:48;18.30;99.90
12434;DHT22;6281;49.038;8.372;2023-07-30T03:47:15;18.30;99.90
12434;DHT22;6281;49.038;8.372;2023-07-30T03:49:42;18.30;99.90
12434;DHT22;6281;49.038;8.372;2023-07-30T03:52:09;18.30;99.90
12434;DHT22;6281;49.038;8.372;2023-07-30T03:54:37;18.30;99.90
12434;DHT22;6281;49.038;8.372;2023-07-30T03:57:04;18.30;99.90
12434;DHT22;6281;49.038;8.372;2023-07-30T03:59:31;18.30;99.90
12434;DHT22;6281;49.038;8.372;2023-07-30T04:01:58;18.20;99.90
12434;DHT22;6281;49.038;8.372;2023-07-30T04:04:25;18.30;99.90
12434;DHT22;6281;49.038;8.372;2023-07-30T04:06:54;18.30;99.90
12434;DHT22;6281;49.038;8.372;2023-07-30T04:09:22;18.20;99.90
12434;DHT22;6281;49.038;8.372;2023-07-30T04:11:51;18.20;99.90
12434;DHT22;6281;49.038;8.372;2023-07-30T04:14:18;18.20;99.90
12434;DHT22;6281;49.038;8.372;2023-07-30T04:16:44;18.20;99.90
12434;DHT22;6281;49.038;8.372;2023-07-30T04:19:12;18.00;99.90
12434;DHT22;6281;49.038;8.372;2023-07-30T04:21:39;18.00;99.90
12434;DHT22;6281;49.038;8.372;2023-07-30T04:24:06;17.90;99.90
12434;DHT22;6281;49.038;8.372;2023-07-30T04:26:33;17.80;99.90
12434;DHT22;6281;49.038;8.372;2023-07-30T04:29:01;18.00;99.90
12434;DHT22;6281;49.038;8.372;2023-07-30T04:31:28;17.80;99.90
12434;DHT22;6281;49.038;8.372;2023-07-30T04:33:55;17.70;99.90
12434;DHT22;6281;49.038;8.372;2023-07-30T04:36:22;17.70;99.90
12434;DHT22;6281;49.038;8.372;2023-07-30T04:38:49;17.60;99.90
12434;DHT22;6281;49.038;8.372;2023-07-30T04:41:15;17.50;99.90
12434;DHT22;6281;49.038;8.372;2023-07-30T04:43:42;17.70;99.90
12434;DHT22;6281;49.038;8.372;2023-07-30T04:46:11;17.60;99.90
12434;DHT22;6281;49.038;8.372;2023-07-30T04:48:38;17.60;99.90
12434;DHT22;6281;49.038;8.372;2023-07-30T04:51:04;17.70;99.90
12434;DHT22;6281;49.038;8.372;2023-07-30T04:53:31;17.60;99.90
12434;DHT22;6281;49.038;8.372;2023-07-30T04:55:59;17.60;99.90
12434;DHT22;6281;49.038;8.372;2023-07-30T04:58:25;17.70;99.90
12434;DHT22;6281;49.038;8.372;2023-07-30T05:00:52;17.60;99.90
12434;DHT22;6281;49.038;8.372;2023-07-30T05:03:21;17.60;99.90
12434;DHT22;6281;49.038;8.372;2023-07-30T05:05:48;17.60;99.90
12434;DHT22;6281;49.038;8.372;2023-07-30T05:08:14;17.70;99.90
12434;DHT22;6281;49.038;8.372;2023-07-30T05:10:41;17.70;99.90
12434;DHT22;6281;49.038;8.372;2023-07-30T05:13:08;17.70;99.90
12434;DHT22;6281;49.038;8.372;2023-07-30T05:15:35;17.80;99.90
12434;DHT22;6281;49.038;8.372;2023-07-30T05:18:02;17.80;99.90
12434;DHT22;6281;49.038;8.372;2023-07-30T05:20:31;17.90;99.90
12434;DHT22;6281;49.038;8.372;2023-07-30T05:22:57;17.90;99.90
12434;DHT22;6281;49.038;8.372;2023-07-30T05:25:24;17.90;99.90
12434;DHT22;6281;49.038;8.372;2023-07-30T05:27:51;18.00;99.90
12434;DHT22;6281;49.038;8.372;2023-07-30T05:30:18;18.00;99.90
12434;DHT22;6281;49.038;8.372;2023-07-30T05:32:45;18.10;99.90
12434;DHT22;6281;49.038;8.372;2023-07-30T05:35:13;18.20;99.90
12434;DHT22;6281;49.038;8.372;2023-07-30T05:37:41;18.20;99.90
12434;DHT22;6281;49.038;8.372;2023-07-30T05:40:08;18.30;99.90
12434;DHT22;6281;49.038;8.372;2023-07-30T05:42:35;18.40;99.90
12434;DHT22;6281;49.038;8.372;2023-07-30T05:45:02;18.60;99.90
12434;DHT22;6281;49.038;8.372;2023-07-30T05:47:29;18.50;99.90
12434;DHT22;6281;49.038;8.372;2023-07-30T05:49:56;18.50;99.90
12434;DHT22;6281;49.038;8.372;2023-07-30T05:52:23;18.50;99.90
12434;DHT22;6281;49.038;8.372;2023-07-30T05:54:51;18.60;99.90
12434;DHT22;6281;49.038;8.372;2023-07-30T05:57:18;18.60;99.90
12434;DHT22;6281;49.038;8.372;2023-07-30T05:59:45;18.60;99.90
12434;DHT22;6281;49.038;8.372;2023-07-30T06:02:12;18.70;99.90
12434;DHT22;6281;49.038;8.372;2023-07-30T06:04:39;18.90;99.90
12434;DHT22;6281;49.038;8.372;2023-07-30T06:07:06;19.00;99.90
12434;DHT22;6281;49.038;8.372;2023-07-30T06:09:33;19.00;99.90
12434;DHT22;6281;49.038;8.372;2023-07-30T06:12:01;18.90;99.90
12434;DHT22;6281;49.038;8.372;2023-07-30T06:14:28;18.90;99.90
12434;DHT22;6281;49.038;8.372;2023-07-30T06:16:55;18.90;99.90
12434;DHT22;6281;49.038;8.372;2023-07-30T06:19:22;18.80;99.90
12434;DHT22;6281;49.038;8.372;2023-07-30T06:21:49;18.90;99.90
12434;DHT22;6281;49.038;8.372;2023-07-30T06:24:16;18.80;99.90
12434;DHT22;6281;49.038;8.372;2023-07-30T06:26:43;18.70;99.90
12434;DHT22;6281;49.038;8.372;2023-07-30T06:29:11;18.80;99.90
12434;DHT22;6281;49.038;8.372;2023-07-30T06:31:38;18.50;99.90
12434;DHT22;6281;49.038;8.372;2023-07-30T06:34:05;18.40;99.90
12434;DHT22;6281;49.038;8.372;2023-07-30T06:36:32;18.30;99.90
12434;DHT22;6281;49.038;8.372;2023-07-30T06:38:59;18.30;99.90
12434;DHT22;6281;49.038;8.372;2023-07-30T06:41:26;18.10;99.90
12434;DHT22;6281;49.038;8.372;2023-07-30T06:43:53;17.90;99.90
12434;DHT22;6281;49.038;8.372;2023-07-30T06:46:21;17.90;99.90
12434;DHT22;6281;49.038;8.372;2023-07-30T06:48:48;17.80;99.90
12434;DHT22;6281;49.038;8.372;2023-07-30T06:51:19;17.90;99.90
12434;DHT22;6281;49.038;8.372;2023-07-30T06:53:46;17.90;99.90
12434;DHT22;6281;49.038;8.372;2023-07-30T06:56:12;18.10;99.90
12434;DHT22;6281;49.038;8.372;2023-07-30T06:58:39;18.20;99.90
12434;DHT22;6281;49.038;8.372;2023-07-30T07:01:06;18.10;99.90
12434;DHT22;6281;49.038;8.372;2023-07-30T07:03:35;18.20;99.90
12434;DHT22;6281;49.038;8.372;2023-07-30T07:06:02;18.30;99.90
12434;DHT22;6281;49.038;8.372;2023-07-30T07:08:29;18.30;99.90
12434;DHT22;6281;49.038;8.372;2023-07-30T07:10:56;18.40;99.90
12434;DHT22;6281;49.038;8.372;2023-07-30T07:13:23;18.40;99.90
12434;DHT22;6281;49.038;8.372;2023-07-30T07:15:50;18.60;99.90
12434;DHT22;6281;49.038;8.372;2023-07-30T07:18:18;18.50;99.90
12434;DHT22;6281;49.038;8.372;2023-07-30T07:20:46;18.50;99.90
12434;DHT22;6281;49.038;8.372;2023-07-30T07:23:13;18.50;99.90
12434;DHT22;6281;49.038;8.372;2023-07-30T07:25:40;18.60;99.90
12434;DHT22;6281;49.038;8.372;2023-07-30T07:28:05;18.80;99.90
12434;DHT22;6281;49.038;8.372;2023-07-30T07:30:34;18.80;99.90
12434;DHT22;6281;49.038;8.372;2023-07-30T07:33:01;18.80;99.90
12434;DHT22;6281;49.038;8.372;2023-07-30T07:35:30;18.90;99.90
12434;DHT22;6281;49.038;8.372;2023-07-30T07:37:59;18.90;99.90
12434;DHT22;6281;49.038;8.372;2023-07-30T07:40:26;19.10;99.90
12434;DHT22;6281;49.038;8.372;2023-07-30T07:42:55;19.20;99.90
12434;DHT22;6281;49.038;8.372;2023-07-30T07:45:22;19.40;99.90
12434;DHT22;6281;49.038;8.372;2023-07-30T07:47:48;19.20;99.90
12434;DHT22;6281;49.038;8.372;2023-07-30T07:50:15;19.50;99.90
12434;DHT22;6281;49.038;8.372;2023-07-30T07:52:42;19.50;99.90
12434;DHT22;6281;49.038;8.372;2023-07-30T07:55:10;19.50;99.90
12434;DHT22;6281;49.038;8.372;2023-07-30T07:57:37;19.70;99.90
12434;DHT22;6281;49.038;8.372;2023-07-30T08:00:05;19.80;99.90
12434;DHT22;6281;49.038;8.372;2023-07-30T08:02:32;19.90;99.90
12434;DHT22;6281;49.038;8.372;2023-07-30T08:04:58;20.10;99.90
12434;DHT22;6281;49.038;8.372;2023-07-30T08:07:25;20.20;99.90
12434;DHT22;6281;49.038;8.372;2023-07-30T08:09:52;20.40;99.90
12434;DHT22;6281;49.038;8.372;2023-07-30T08:12:21;20.20;99.90
12434;DHT22;6281;49.038;8.372;2023-07-30T08:14:48;20.30;99.90
12434;DHT22;6281;49.038;8.372;2023-07-30T08:17:15;20.20;99.90
12434;DHT22;6281;49.038;8.372;2023-07-30T08:19:41;20.40;99.90
12434;DHT22;6281;49.038;8.372;2023-07-30T08:22:08;20.20;99.90
12434;DHT22;6281;49.038;8.372;2023-07-30T08:24:35;20.30;99.90
12434;DHT22;6281;49.038;8.372;2023-07-30T08:27:02;20.10;99.90
12434;DHT22;6281;49.038;8.372;2023-07-30T08:29:31;20.10;99.90
12434;DHT22;6281;49.038;8.372;2023-07-30T08:31:58;20.00;99.90
12434;DHT22;6281;49.038;8.372;2023-07-30T08:34:25;20.00;99.90
12434;DHT22;6281;49.038;8.372;2023-07-30T08:36:51;20.20;99.90
12434;DHT22;6281;49.038;8.372;2023-07-30T08:39:18;20.20;99.90
12434;DHT22;6281;49.038;8.372;2023-07-30T08:41:45;20.50;99.90
12434;DHT22;6281;49.038;8.372;2023-07-30T08:44:12;20.70;99.90
12434;DHT22;6281;49.038;8.372;2023-07-30T08:46:41;20.40;99.90
12434;DHT22;6281;49.038;8.372;2023-07-30T08:49:08;20.50;99.90
12434;DHT22;6281;49.038;8.372;2023-07-30T08:51:36;20.50;99.90
12434;DHT22;6281;49.038;8.372;2023-07-30T08:54:03;20.60;99.90
12434;DHT22;6281;49.038;8.372;2023-07-30T08:56:32;20.60;99.90
12434;DHT22;6281;49.038;8.372;2023-07-30T08:59:00;20.90;99.90
12434;DHT22;6281;49.038;8.372;2023-07-30T09:01:30;20.80;99.90
12434;DHT22;6281;49.038;8.372;2023-07-30T09:03:59;20.80;99.90
12434;DHT22;6281;49.038;8.372;2023-07-30T09:06:26;21.10;99.90
12434;DHT22;6281;49.038;8.372;2023-07-30T09:08:53;21.20;99.90
12434;DHT22;6281;49.038;8.372;2023-07-30T09:11:20;21.30;99.90
12434;DHT22;6281;49.038;8.372;2023-07-30T09:13:47;21.40;99.90
12434;DHT22;6281;49.038;8.372;2023-07-30T09:16:15;21.00;99.90
12434;DHT22;6281;49.038;8.372;2023-07-30T09:18:43;21.10;99.90
12434;DHT22;6281;49.038;8.372;2023-07-30T09:21:12;21.30;99.90
12434;DHT22;6281;49.038;8.372;2023-07-30T09:23:40;21.20;99.90
12434;DHT22;6281;49.038;8.372;2023-07-30T09:26:07;21.20;99.90
12434;DHT22;6281;49.038;8.372;2023-07-30T09:28:34;21.10;99.90
12434;DHT22;6281;49.038;8.372;2023-07-30T09:31:01;21.00;99.90
12434;DHT22;6281;49.038;8.372;2023-07-30T09:33:28;21.30;99.90
12434;DHT22;6281;49.038;8.372;2023-07-30T09:35:57;21.40;99.90
12434;DHT22;6281;49.038;8.372;2023-07-30T09:38:25;21.60;99.90
12434;DHT22;6281;49.038;8.372;2023-07-30T09:41:00;21.80;99.90
12434;DHT22;6281;49.038;8.372;2023-07-30T09:43:29;21.50;99.90
12434;DHT22;6281;49.038;8.372;2023-07-30T09:46:01;21.60;99.90
12434;DHT22;6281;49.038;8.372;2023-07-30T09:48:29;21.50;99.90
12434;DHT22;6281;49.038;8.372;2023-07-30T09:50:57;21.20;99.90
12434;DHT22;6281;49.038;8.372;2023-07-30T09:53:26;21.00;99.90
12434;DHT22;6281;49.038;8.372;2023-07-30T09:55:54;21.00;99.90
12434;DHT22;6281;49.038;8.372;2023-07-30T09:58:21;20.90;99.90
12434;DHT22;6281;49.038;8.372;2023-07-30T10:00:48;20.90;99.90
12434;DHT22;6281;49.038;8.372;2023-07-30T10:03:16;21.10;99.90
12434;DHT22;6281;49.038;8.372;2023-07-30T10:05:44;21.60;99.90
12434;DHT22;6281;49.038;8.372;2023-07-30T10:08:19;21.70;99.90
12434;DHT22;6281;49.038;8.372;2023-07-30T10:10:49;22.10;99.90
12434;DHT22;6281;49.038;8.372;2023-07-30T10:13:17;21.70;99.90
12434;DHT22;6281;49.038;8.372;2023-07-30T10:15:46;21.40;99.90
12434;DHT22;6281;49.038;8.372;2023-07-30T10:18:13;20.90;99.90
12434;DHT22;6281;49.038;8.372;2023-07-30T10:20:48;20.90;99.90
12434;DHT22;6281;49.038;8.372;2023-07-30T10:23:18;20.70;99.90
12434;DHT22;6281;49.038;8.372;2023-07-30T10:25:48;20.50;99.90
12434;DHT22;6281;49.038;8.372;2023-07-30T10:28:31;20.40;99.90
12434;DHT22;6281;49.038;8.372;2023-07-30T10:30:59;20.70;99.90
12434;DHT22;6281;49.038;8.372;2023-07-30T10:33:45;21.00;99.90
12434;DHT22;6281;49.038;8.372;2023-07-30T10:36:31;22.10;99.90
12434;DHT22;6281;49.038;8.372;2023-07-30T10:38:58;23.30;99.90
12434;DHT22;6281;49.038;8.372;2023-07-30T10:41:30;24.20;99.90
12434;DHT22;6281;49.038;8.372;2023-07-30T10:43:59;24.60;99.90
12434;DHT22;6281;49.038;8.372;2023-07-30T10:46:26;25.00;99.90
12434;DHT22;6281;49.038;8.372;2023-07-30T10:48:54;25.50;99.90
12434;DHT22;6281;49.038;8.372;2023-07-30T10:51:21;23.30;99.90
12434;DHT22;6281;49.038;8.372;2023-07-30T10:53:50;23.70;99.90
12434;DHT22;6281;49.038;8.372;2023-07-30T10:56:22;24.60;99.90
12434;DHT22;6281;49.038;8.372;2023-07-30T10:58:53;24.20;99.90
12434;DHT22;6281;49.038;8.372;2023-07-30T11:01:20;25.80;99.90
12434;DHT22;6281;49.038;8.372;2023-07-30T11:03:50;26.10;99.90
12434;DHT22;6281;49.038;8.372;2023-07-30T11:06:21;25.60;99.90
12434;DHT22;6281;49.038;8.372;2023-07-30T11:08:48;24.80;99.90
12434;DHT22;6281;49.038;8.372;2023-07-30T11:11:15;24.30;99.90
12434;DHT22;6281;49.038;8.372;2023-07-30T11:13:43;23.90;99.90
12434;DHT22;6281;49.038;8.372;2023-07-30T11:16:14;22.60;99.90
12434;DHT22;6281;49.038;8.372;2023-07-30T11:18:42;23.70;99.90
12434;DHT22;6281;49.038;8.372;2023-07-30T11:21:10;22.90;99.90
12434;DHT22;6281;49.038;8.372;2023-07-30T11:23:39;22.30;99.90
12434;DHT22;6281;49.038;8.372;2023-07-30T11:26:08;22.30;99.90
12434;DHT22;6281;49.038;8.372;2023-07-30T11:28:36;22.50;99.90
12434;DHT22;6281;49.038;8.372;2023-07-30T11:31:05;23.40;99.90
12434;DHT22;6281;49.038;8.372;2023-07-30T11:33:35;24.10;99.90
12434;DHT22;6281;49.038;8.372;2023-07-30T11:36:03;23.30;99.90
12434;DHT22;6281;49.038;8.372;2023-07-30T11:38:32;22.60;99.90
12434;DHT22;6281;49.038;8.372;2023-07-30T11:40:59;22.20;99.90
12434;DHT22;6281;49.038;8.372;2023-07-30T11:43:26;22.50;99.90
12434;DHT22;6281;49.038;8.372;2023-07-30T11:46:09;22.30;99.90
12434;DHT22;6281;49.038;8.372;2023-07-30T11:48:39;22.30;99.90
12434;DHT22;6281;49.038;8.372;2023-07-30T11:51:06;22.30;99.90
12434;DHT22;6281;49.038;8.372;2023-07-30T11:53:47;22.60;99.90
12434;DHT22;6281;49.038;8.372;2023-07-30T11:56:22;22.30;99.90
12434;DHT22;6281;49.038;8.372;2023-07-30T11:58:50;21.80;99.90
12434;DHT22;6281;49.038;8.372;2023-07-30T12:01:18;21.90;99.90
12434;DHT22;6281;49.038;8.372;2023-07-30T12:03:46;22.00;99.90
12434;DHT22;6281;49.038;8.372;2023-07-30T12:06:13;21.70;99.90
12434;DHT22;6281;49.038;8.372;2023-07-30T12:08:40;22.40;99.90
12434;DHT22;6281;49.038;8.372;2023-07-30T12:11:08;22.70;99.90
12434;DHT22;6281;49.038;8.372;2023-07-30T12:13:42;22.70;99.90
12434;DHT22;6281;49.038;8.372;2023-07-30T12:16:11;22.50;99.90
12434;DHT22;6281;49.038;8.372;2023-07-30T12:18:38;22.60;99.90
12434;DHT22;6281;49.038;8.372;2023-07-30T12:21:07;23.30;99.90
12434;DHT22;6281;49.038;8.372;2023-07-30T12:23:36;24.10;99.90
12434;DHT22;6281;49.038;8.372;2023-07-30T12:26:03;24.70;99.90
12434;DHT22;6281;49.038;8.372;2023-07-30T12:28:31;23.20;99.90
12434;DHT22;6281;49.038;8.372;2023-07-30T12:30:58;22.50;99.90
12434;DHT22;6281;49.038;8.372;2023-07-30T12:33:25;22.50;99.90
12434;DHT22;6281;49.038;8.372;2023-07-30T12:35:52;22.30;99.90
12434;DHT22;6281;49.038;8.372;2023-07-30T12:38:20;21.90;99.90
12434;DHT22;6281;49.038;8.372;2023-07-30T12:40:46;22.10;99.90
12434;DHT22;6281;49.038;8.372;2023-07-30T12:43:13;22.30;99.90
12434;DHT22;6281;49.038;8.372;2023-07-30T12:45:40;22.40;99.90
12434;DHT22;6281;49.038;8.372;2023-07-30T12:48:07;23.40;99.90
12434;DHT22;6281;49.038;8.372;2023-07-30T12:50:33;23.90;99.90
12434;DHT22;6281;49.038;8.372;2023-07-30T12:53:00;23.80;99.90
12434;DHT22;6281;49.038;8.372;2023-07-30T12:55:28;23.60;99.90
12434;DHT22;6281;49.038;8.372;2023-07-30T12:57:55;23.50;99.90
12434;DHT22;6281;49.038;8.372;2023-07-30T13:00:22;23.50;99.90
12434;DHT22;6281;49.038;8.372;2023-07-30T13:02:49;23.40;99.90
12434;DHT22;6281;49.038;8.372;2023-07-30T13:05:17;23.30;99.90
12434;DHT22;6281;49.038;8.372;2023-07-30T13:07:44;22.70;99.90
12434;DHT22;6281;49.038;8.372;2023-07-30T13:10:11;22.30;99.90
12434;DHT22;6281;49.038;8.372;2023-07-30T13:12:39;23.30;99.90
12434;DHT22;6281;49.038;8.372;2023-07-30T13:15:07;23.00;99.90
12434;DHT22;6281;49.038;8.372;2023-07-30T13:17:34;23.00;99.90
12434;DHT22;6281;49.038;8.372;2023-07-30T13:20:01;22.50;99.90
12434;DHT22;6281;49.038;8.372;2023-07-30T13:22:27;22.40;99.90
12434;DHT22;6281;49.038;8.372;2023-07-30T13:24:54;22.90;99.90
12434;DHT22;6281;49.038;8.372;2023-07-30T13:27:21;22.80;99.90
12434;DHT22;6281;49.038;8.372;2023-07-30T13:29:49;22.60;99.90
12434;DHT22;6281;49.038;8.372;2023-07-30T13:32:16;22.50;99.90
12434;DHT22;6281;49.038;8.372;2023-07-30T13:34:43;22.60;99.90
12434;DHT22;6281;49.038;8.372;2023-07-30T13:37:10;23.60;99.90
12434;DHT22;6281;49.038;8.372;2023-07-30T13:39:37;23.70;99.90
12434;DHT22;6281;49.038;8.372;2023-07-30T13:42:04;23.40;99.90
12434;DHT22;6281;49.038;8.372;2023-07-30T13:44:31;23.90;99.90
12434;DHT22;6281;49.038;8.372;2023-07-30T13:46:59;23.80;99.90
12434;DHT22;6281;49.038;8.372;2023-07-30T13:49:26;23.60;99.90
12434;DHT22;6281;49.038;8.372;2023-07-30T13:51:53;24.30;99.90
12434;DHT22;6281;49.038;8.372;2023-07-30T13:54:20;24.40;99.90
12434;DHT22;6281;49.038;8.372;2023-07-30T13:56:47;24.80;99.90
12434;DHT22;6281;49.038;8.372;2023-07-30T13:59:14;24.40;99.90
12434;DHT22;6281;49.038;8.372;2023-07-30T14:02:00;24.30;99.90
12434;DHT22;6281;49.038;8.372;2023-07-30T14:04:27;24.50;99.90
12434;DHT22;6281;49.038;8.372;2023-07-30T14:06:54;25.10;99.90
12434;DHT22;6281;49.038;8.372;2023-07-30T14:09:21;25.40;98.00
12434;DHT22;6281;49.038;8.372;2023-07-30T14:11:50;25.30;98.00
12434;DHT22;6281;49.038;8.372;2023-07-30T14:14:17;25.30;95.80
12434;DHT22;6281;49.038;8.372;2023-07-30T14:16:46;25.40;96.00
12434;DHT22;6281;49.038;8.372;2023-07-30T14:19:14;25.00;94.40
12434;DHT22;6281;49.038;8.372;2023-07-30T14:21:41;25.30;95.20
12434;DHT22;6281;49.038;8.372;2023-07-30T14:24:10;25.70;97.70
12434;DHT22;6281;49.038;8.372;2023-07-30T14:26:37;25.50;91.70
12434;DHT22;6281;49.038;8.372;2023-07-30T14:29:04;24.90;94.30
12434;DHT22;6281;49.038;8.372;2023-07-30T14:31:31;24.90;92.60
12434;DHT22;6281;49.038;8.372;2023-07-30T14:33:58;24.50;90.70
12434;DHT22;6281;49.038;8.372;2023-07-30T14:36:26;24.60;90.50
12434;DHT22;6281;49.038;8.372;2023-07-30T14:38:53;24.70;90.10
12434;DHT22;6281;49.038;8.372;2023-07-30T14:41:20;25.00;92.30
12434;DHT22;6281;49.038;8.372;2023-07-30T14:43:47;25.40;89.10
12434;DHT22;6281;49.038;8.372;2023-07-30T14:46:14;25.70;89.30
12434;DHT22;6281;49.038;8.372;2023-07-30T14:48:41;24.50;86.10
12434;DHT22;6281;49.038;8.372;2023-07-30T14:51:09;24.60;83.80
12434;DHT22;6281;49.038;8.372;2023-07-30T14:53:37;24.50;82.20
12434;DHT22;6281;49.038;8.372;2023-07-30T14:56:04;24.20;83.60
12434;DHT22;6281;49.038;8.372;2023-07-30T14:58:31;24.10;88.70
12434;DHT22;6281;49.038;8.372;2023-07-30T15:01:22;24.50;87.20
12434;DHT22;6281;49.038;8.372;2023-07-30T15:03:49;24.60;87.80
12434;DHT22;6281;49.038;8.372;2023-07-30T15:06:17;24.70;88.40
12434;DHT22;6281;49.038;8.372;2023-07-30T15:08:45;23.50;90.80
12434;DHT22;6281;49.038;8.372;2023-07-30T15:11:12;23.90;89.60
12434;DHT22;6281;49.038;8.372;2023-07-30T15:13:40;24.40;87.20
12434;DHT22;6281;49.038;8.372;2023-07-30T15:16:07;24.80;91.40
12434;DHT22;6281;49.038;8.372;2023-07-30T15:18:34;24.50;87.90
12434;DHT22;6281;49.038;8.372;2023-07-30T15:21:01;25.00;85.40
12434;DHT22;6281;49.038;8.372;2023-07-30T15:23:28;24.80;86.70
12434;DHT22;6281;49.038;8.372;2023-07-30T15:25:56;23.90;87.30
12434;DHT22;6281;49.038;8.372;2023-07-30T15:28:23;23.30;90.60
12434;DHT22;6281;49.038;8.372;2023-07-30T15:30:50;23.50;91.90
12434;DHT22;6281;49.038;8.372;2023-07-30T15:33:17;24.80;91.50
12434;DHT22;6281;49.038;8.372;2023-07-30T15:35:44;25.60;88.80
12434;DHT22;6281;49.038;8.372;2023-07-30T15:38:11;24.10;91.10
12434;DHT22;6281;49.038;8.372;2023-07-30T15:40:38;23.60;92.60
12434;DHT22;6281;49.038;8.372;2023-07-30T15:43:06;24.00;88.80
12434;DHT22;6281;49.038;8.372;2023-07-30T15:45:33;24.00;89.50
12434;DHT22;6281;49.038;8.372;2023-07-30T15:48:01;23.80;88.30